Map

Track Data

SID SEASON NUMBER BASIN SUBBASIN NAME ISO_TIME NATURE LAT LON WMO_WIND WMO_PRES WMO_AGENCY TRACK_TYPE DIST2LAND LANDFALL IFLAG USA_AGENCY USA_ATCF_ID USA_LAT USA_LON USA_RECORD USA_STATUS USA_WIND USA_PRES USA_SSHS USA_R34_NE USA_R34_SE USA_R34_SW USA_R34_NW USA_R50_NE USA_R50_SE USA_R50_SW USA_R50_NW USA_R64_NE USA_R64_SE USA_R64_SW USA_R64_NW USA_POCI USA_ROCI USA_RMW USA_EYE TOKYO_LAT TOKYO_LON TOKYO_GRADE TOKYO_WIND TOKYO_PRES TOKYO_R50_DIR TOKYO_R50_LONG TOKYO_R50_SHORT TOKYO_R30_DIR TOKYO_R30_LONG TOKYO_R30_SHORT TOKYO_LAND CMA_LAT CMA_LON CMA_CAT CMA_WIND CMA_PRES HKO_LAT HKO_LON HKO_CAT HKO_WIND HKO_PRES NEWDELHI_LAT NEWDELHI_LON NEWDELHI_GRADE NEWDELHI_WIND NEWDELHI_PRES NEWDELHI_CI NEWDELHI_DP NEWDELHI_POCI REUNION_LAT REUNION_LON REUNION_TYPE REUNION_WIND REUNION_PRES REUNION_TNUM REUNION_CI REUNION_RMW REUNION_R34_NE REUNION_R34_SE REUNION_R34_SW REUNION_R34_NW REUNION_R50_NE REUNION_R50_SE REUNION_R50_SW REUNION_R50_NW REUNION_R64_NE REUNION_R64_SE REUNION_R64_SW REUNION_R64_NW BOM_LAT BOM_LON BOM_TYPE BOM_WIND BOM_PRES BOM_TNUM BOM_CI BOM_RMW BOM_R34_NE BOM_R34_SE BOM_R34_SW BOM_R34_NW BOM_R50_NE BOM_R50_SE BOM_R50_SW BOM_R50_NW BOM_R64_NE BOM_R64_SE BOM_R64_SW BOM_R64_NW BOM_ROCI BOM_POCI BOM_EYE BOM_POS_METHOD BOM_PRES_METHOD NADI_LAT NADI_LON NADI_CAT NADI_WIND NADI_PRES WELLINGTON_LAT WELLINGTON_LON WELLINGTON_WIND WELLINGTON_PRES DS824_LAT DS824_LON DS824_STAGE DS824_WIND DS824_PRES TD9636_LAT TD9636_LON TD9636_STAGE TD9636_WIND TD9636_PRES TD9635_LAT TD9635_LON TD9635_WIND TD9635_PRES TD9635_ROCI NEUMANN_LAT NEUMANN_LON NEUMANN_CLASS NEUMANN_WIND NEUMANN_PRES MLC_LAT MLC_LON MLC_CLASS MLC_WIND MLC_PRES USA_GUST BOM_GUST BOM_GUST_PER REUNION_GUST REUNION_GUST_PER USA_SEAHGT USA_SEARAD_NE USA_SEARAD_SE USA_SEARAD_SW USA_SEARAD_NW STORM_SPEED STORM_DIR
1848011S09080 1848 2 SI MM NOT_NAMED 1848-01-11 06:00:00 NR -8.60000 79.8000 reunion main 1627 1626 _____O________ -1 -8.60000 79.8000 99 9.90000 1 110
1848011S09080 1848 2 SI MM NOT_NAMED 1848-01-11 09:00:00 NR -8.62384 79.8640 main 1626 1626 _____P________ -1 -8.62384 79.8640 99 1 114
1848011S09080 1848 2 SI MM NOT_NAMED 1848-01-11 12:00:00 NR -8.65018 79.9112 main 1637 1637 _____P________ -1 -8.65018 79.9112 99 1 137
1848011S09080 1848 2 SI MM NOT_NAMED 1848-01-11 15:00:00 NR -8.68151 79.9248 main 1637 1637 _____P________ -1 -8.68151 79.9248 99 1 0
1848011S09080 1848 2 SI MM NOT_NAMED 1848-01-11 18:00:00 NR -8.72037 79.8880 main 1637 1637 _____P________ -1 -8.72037 79.8880 99 2 237
1848011S09080 1848 2 SI MM NOT_NAMED 1848-01-11 21:00:00 NR -8.76923 79.7840 main 1649 1649 _____P________ -1 -8.76923 79.7840 99 3 249
1848011S09080 1848 2 SI MM NOT_NAMED 1848-01-12 00:00:00 NR -8.83056 79.5960 main 1650 1650 _____P________ -1 -8.83056 79.5960 99 5 254
1848011S09080 1848 2 SI MM NOT_NAMED 1848-01-12 03:00:00 NR -8.90673 79.3070 main 1664 1664 _____P________ -1 -8.90673 79.3070 99 7 256
1848011S09080 1848 2 SI MM NOT_NAMED 1848-01-12 06:00:00 NR -9.00000 78.9000 reunion main 1680 1680 _____O________ -1 -9.00000 78.9000 99 9.90000 10 258
1848011S09080 1848 2 SI MM NOT_NAMED 1848-01-12 09:00:00 NR -9.11204 78.3653 main 1698 1698 _____P________ -1 -9.11204 78.3653 99 12 258
1848011S09080 1848 2 SI MM NOT_NAMED 1848-01-12 12:00:00 NR -9.24269 77.7234 main 1722 1722 _____P________ -1 -9.24269 77.7234 99 14 258
1848011S09080 1848 2 SI MM NOT_NAMED 1848-01-12 15:00:00 NR -9.39144 77.0024 main 1760 1760 _____P________ -1 -9.39144 77.0024 99 15 258
1848011S09080 1848 2 SI MM NOT_NAMED 1848-01-12 18:00:00 NR -9.55788 76.2304 main 1804 1804 _____P________ -1 -9.55788 76.2304 99 16 257
1848011S09080 1848 2 SI MM NOT_NAMED 1848-01-12 21:00:00 NR -9.74180 75.4359 main 1840 1840 _____P________ -1 -9.74180 75.4359 99 16 256
1848011S09080 1848 2 SI MM NOT_NAMED 1848-01-13 00:00:00 NR -9.94322 74.6471 main 1890 1890 _____P________ -1 -9.94322 74.6471 99 16 255
1848011S09080 1848 2 SI MM NOT_NAMED 1848-01-13 03:00:00 NR -10.1624 73.8924 main 1948 1948 _____P________ -1 -10.1624 73.8924 99 15 252
1848011S09080 1848 2 SI MM NOT_NAMED 1848-01-13 06:00:00 NR -10.4000 73.2000 reunion main 1984 1920 _____O________ -1 -10.4000 73.2000 99 9.90000 13 247
1848011S09080 1848 2 SI MM NOT_NAMED 1848-01-13 09:00:00 NR -10.6769 72.6331 main 1911 1847 _____P________ -1 -10.6769 72.6331 99 12 242
1848011S09080 1848 2 SI MM NOT_NAMED 1848-01-13 12:00:00 NR -10.9785 72.1114 main 1847 1792 _____P________ -1 -10.9785 72.1114 99 12 238
1848011S09080 1848 2 SI MM NOT_NAMED 1848-01-13 15:00:00 NR -11.2958 71.6341 main 1783 1728 _____P________ -1 -11.2958 71.6341 99 11 234
1848011S09080 1848 2 SI MM NOT_NAMED 1848-01-13 18:00:00 NR -11.6198 71.2008 main 1728 1673 _____P________ -1 -11.6198 71.2008 99 10 231
1848011S09080 1848 2 SI MM NOT_NAMED 1848-01-13 21:00:00 NR -11.9413 70.8109 main 1673 1627 _____P________ -1 -11.9413 70.8109 99 10 229
1848011S09080 1848 2 SI MM NOT_NAMED 1848-01-14 00:00:00 NR -12.2513 70.4644 main 1620 1581 _____P________ -1 -12.2513 70.4644 99 9 227
1848011S09080 1848 2 SI MM NOT_NAMED 1848-01-14 03:00:00 NR -12.5406 70.1608 main 1581 1535 _____P________ -1 -12.5406 70.1608 99 8 225
1848011S09080 1848 2 SI MM NOT_NAMED 1848-01-14 06:00:00 NR -12.8000 69.9000 reunion main 1535 1505 _____O________ -1 -12.8000 69.9000 99 9.90000 7 227
1848011S09080 1848 2 SI MM NOT_NAMED 1848-01-14 09:00:00 NR -12.9911 69.6706 main 1505 1480 _____P________ -1 -12.9911 69.6706 99 5 228
1848011S09080 1848 2 SI MM NOT_NAMED 1848-01-14 12:00:00 NR -13.1544 69.4906 main 1474 1459 _____P________ -1 -13.1544 69.4906 99 4 225
1848011S09080 1848 2 SI MM NOT_NAMED 1848-01-14 15:00:00 NR -13.2963 69.3503 main 1459 1435 _____P________ -1 -13.2963 69.3503 99 4 222
1848011S09080 1848 2 SI MM NOT_NAMED 1848-01-14 18:00:00 NR -13.4228 69.2398 main 1435 1429 _____P________ -1 -13.4228 69.2398 99 3 218
1848011S09080 1848 2 SI MM NOT_NAMED 1848-01-14 21:00:00 NR -13.5403 69.1494 main 1420 1413 _____P________ -1 -13.5403 69.1494 99 3 216
1848011S09080 1848 2 SI MM NOT_NAMED 1848-01-15 00:00:00 NR -13.6549 69.0692 main 1407 1392 _____P________ -1 -13.6549 69.0692 99 3 214
1848011S09080 1848 2 SI MM NOT_NAMED 1848-01-15 03:00:00 NR -13.7728 68.9894 main 1392 1377 _____P________ -1 -13.7728 68.9894 99 3 213
1848011S09080 1848 2 SI MM NOT_NAMED 1848-01-15 06:00:00 NR -13.9000 68.9000 reunion main 1377 1356 _____O________ -1 -13.9000 68.9000 99 9.90000 4 219
1848011S09080 1848 2 SI MM NOT_NAMED 1848-01-15 09:00:00 NR -14.0649 68.7499 main 1347 1332 _____P________ -1 -14.0649 68.7499 99 5 221
1848011S09080 1848 2 SI MM NOT_NAMED 1848-01-15 12:00:00 NR -14.2367 68.5943 main 1332 1302 _____P________ -1 -14.2367 68.5943 99 5 221
1848011S09080 1848 2 SI MM NOT_NAMED 1848-01-15 15:00:00 NR -14.4133 68.4361 main 1302 1281 _____P________ -1 -14.4133 68.4361 99 5 221
1848011S09080 1848 2 SI MM NOT_NAMED 1848-01-15 18:00:00 NR -14.5927 68.2779 main 1281 1252 _____P________ -1 -14.5927 68.2779 99 5 220
1848011S09080 1848 2 SI MM NOT_NAMED 1848-01-15 21:00:00 NR -14.7730 68.1224 main 1252 1237 _____P________ -1 -14.7730 68.1224 99 5 220
1848011S09080 1848 2 SI MM NOT_NAMED 1848-01-16 00:00:00 NR -14.9523 67.9724 main 1231 1207 _____P________ -1 -14.9523 67.9724 99 5 219
1848011S09080 1848 2 SI MM NOT_NAMED 1848-01-16 03:00:00 NR -15.1286 67.8307 main 1207 1187 _____P________ -1 -15.1286 67.8307 99 4 217
1848011S09080 1848 2 SI MM NOT_NAMED 1848-01-16 06:00:00 NR -15.3000 67.7000 reunion main 1187 1172 _____O________ -1 -15.3000 67.7000 99 9.90000 4 218
1848011S09080 1848 2 SI MM NOT_NAMED 1848-01-16 09:00:00 NR -15.4535 67.5682 main 1167 1152 _____P________ -1 -15.4535 67.5682 99 4 219
1848011S09080 1848 2 SI MM NOT_NAMED 1848-01-16 12:00:00 NR -15.6021 67.4444 main 1143 1128 _____P________ -1 -15.6021 67.4444 99 4 218
1848011S09080 1848 2 SI MM NOT_NAMED 1848-01-16 15:00:00 NR -15.7477 67.3309 main 1128 1108 _____P________ -1 -15.7477 67.3309 99 4 215
1848011S09080 1848 2 SI MM NOT_NAMED 1848-01-16 18:00:00 NR -15.8924 67.2302 main 1108 1093 _____P________ -1 -15.8924 67.2302 99 3 212
1848011S09080 1848 2 SI MM NOT_NAMED 1848-01-16 21:00:00 NR -16.0380 67.1444 main 1093 1083 _____P________ -1 -16.0380 67.1444 99 3 207
1848011S09080 1848 2 SI MM NOT_NAMED 1848-01-17 00:00:00 NR -16.1865 67.0759 main 1083 1069 _____P________ -1 -16.1865 67.0759 99 3 200
1848011S09080 1848 2 SI MM NOT_NAMED 1848-01-17 03:00:00 NR -16.3398 67.0270 main 1069 1059 _____P________ -1 -16.3398 67.0270 99 3 193
1848011S09080 1848 2 SI MM NOT_NAMED 1848-01-17 06:00:00 NR -16.5000 67.0000 reunion main 1059 1054 _____O________ -1 -16.5000 67.0000 99 9.90000 3 192
1848011S09080 1848 2 SI MM NOT_NAMED 1848-01-17 09:00:00 NR -16.6522 66.9613 main 1050 1035 _____P________ -1 -16.6522 66.9613 99 3 191
1848011S09080 1848 2 SI MM NOT_NAMED 1848-01-17 12:00:00 NR -16.8081 66.9412 main 1035 1027 _____P________ -1 -16.8081 66.9412 99 3 182
1848011S09080 1848 2 SI MM NOT_NAMED 1848-01-17 15:00:00 NR -16.9709 66.9431 main 1027 1027 _____P________ -1 -16.9709 66.9431 99 3 0
1848011S09080 1848 2 SI MM NOT_NAMED 1848-01-17 18:00:00 NR -17.1438 66.9703 main 1032 1024 _____P________ -1 -17.1438 66.9703 99 4 168
1848011S09080 1848 2 SI MM NOT_NAMED 1848-01-17 21:00:00 NR -17.3300 67.0261 main 1024 1020 _____P________ -1 -17.3300 67.0261 99 4 160
1848011S09080 1848 2 SI MM NOT_NAMED 1848-01-18 00:00:00 NR -17.5327 67.1141 main 1027 1023 _____P________ -1 -17.5327 67.1141 99 5 155
1848011S09080 1848 2 SI MM NOT_NAMED 1848-01-18 03:00:00 NR -17.7550 67.2375 main 1026 1026 _____P________ -1 -17.7550 67.2375 99 5 150
1848011S09080 1848 2 SI MM NOT_NAMED 1848-01-18 06:00:00 NR -18.0000 67.4000 reunion main 1040 1037 _____O________ -1 -18.0000 67.4000 99 9.90000 6 146
1848011S09080 1848 2 SI MM NOT_NAMED 1848-01-18 09:00:00 NR -18.2821 67.6097 main 1052 1052 _____P________ -1 -18.2821 67.6097 99 7 143
1848011S09080 1848 2 SI MM NOT_NAMED 1848-01-18 12:00:00 NR -18.5883 67.8622 main 1075 1073 _____P________ -1 -18.5883 67.8622 99 8 141
1848011S09080 1848 2 SI MM NOT_NAMED 1848-01-18 15:00:00 NR -18.9127 68.1491 main 1090 1090 _____P________ -1 -18.9127 68.1491 99 9 139
1848011S09080 1848 2 SI MM NOT_NAMED 1848-01-18 18:00:00 NR -19.2492 68.4620 main 1126 1124 _____P________ -1 -19.2492 68.4620 99 9 138
1848011S09080 1848 2 SI MM NOT_NAMED 1848-01-18 21:00:00 NR -19.5920 68.7923 main 1152 1152 _____P________ -1 -19.5920 68.7923 99 9 137
1848011S09080 1848 2 SI MM NOT_NAMED 1848-01-19 00:00:00 NR -19.9353 69.1313 main 1180 1180 _____P________ -1 -19.9353 69.1313 99 9 137
1848011S09080 1848 2 SI MM NOT_NAMED 1848-01-19 03:00:00 NR -20.2732 69.4702 main 1219 1219 _____P________ -1 -20.2732 69.4702 99 9 137
1848011S09080 1848 2 SI MM NOT_NAMED 1848-01-19 06:00:00 NR -20.6000 69.8000 reunion main 1250 1250 _____O________ -1 -20.6000 69.8000 99 9.90000 8 136
1848011S09080 1848 2 SI MM NOT_NAMED 1848-01-19 09:00:00 NR -20.8503 70.0578 main 1281 1281 _____P________ -1 -20.8503 70.0578 99 7 136
1848011S09080 1848 2 SI MM NOT_NAMED 1848-01-19 12:00:00 NR -21.0872 70.3073 main 1302 1302 _____P________ -1 -21.0872 70.3073 99 7 135
1848011S09080 1848 2 SI MM NOT_NAMED 1848-01-19 15:00:00 NR -21.3208 70.5551 main 1334 1334 _____P________ -1 -21.3208 70.5551 99 7 135
1848011S09080 1848 2 SI MM NOT_NAMED 1848-01-19 18:00:00 NR -21.5616 70.8076 main 1357 1357 _____P________ -1 -21.5616 70.8076 99 7 136
1848011S09080 1848 2 SI MM NOT_NAMED 1848-01-19 21:00:00 NR -21.8197 71.0714 main 1389 1389 _____P________ -1 -21.8197 71.0714 99 7 137
1848011S09080 1848 2 SI MM NOT_NAMED 1848-01-20 00:00:00 NR -22.1053 71.3534 main 1423 1423 _____P________ -1 -22.1053 71.3534 99 8 138
1848011S09080 1848 2 SI MM NOT_NAMED 1848-01-20 03:00:00 NR -22.4287 71.6606 main 1457 1457 _____P________ -1 -22.4287 71.6606 99 9 139
1848011S09080 1848 2 SI MM NOT_NAMED 1848-01-20 06:00:00 NR -22.8000 72.0000 reunion main 1493 1493 _____O________ -1 -22.8000 72.0000 99 9.90000 11 142
1848011S09080 1848 2 SI MM NOT_NAMED 1848-01-20 09:00:00 NR -23.2619 72.3626 main 1542 1542 _____P________ -1 -23.2619 72.3626 99 12 144
1848011S09080 1848 2 SI MM NOT_NAMED 1848-01-20 12:00:00 NR -23.7720 72.7546 main 1593 1593 _____P________ -1 -23.7720 72.7546 99 13 145
1848011S09080 1848 2 SI MM NOT_NAMED 1848-01-20 15:00:00 NR -24.3187 73.1776 main 1644 1644 _____P________ -1 -24.3187 73.1776 99 14 144
1848011S09080 1848 2 SI MM NOT_NAMED 1848-01-20 18:00:00 NR -24.8907 73.6328 main 1699 1699 _____P________ -1 -24.8907 73.6328 99 14 144
1848011S09080 1848 2 SI MM NOT_NAMED 1848-01-20 21:00:00 NR -25.4763 74.1214 main 1765 1765 _____P________ -1 -25.4763 74.1214 99 15 142
1848011S09080 1848 2 SI MM NOT_NAMED 1848-01-21 00:00:00 NR -26.0640 74.6448 main 1832 1832 _____P________ -1 -26.0640 74.6448 99 15 140
1848011S09080 1848 2 SI MM NOT_NAMED 1848-01-21 03:00:00 NR -26.6424 75.2040 main 1906 1906 _____P________ -1 -26.6424 75.2040 99 15 138
1848011S09080 1848 2 SI MM NOT_NAMED 1848-01-21 06:00:00 NR -27.2000 75.8000 reunion main 1983 1983 _____O________ -1 -27.2000 75.8000 99 9.90000 15 135
1848011S09080 1848 2 SI MM NOT_NAMED 1848-01-21 09:00:00 NR -27.7277 76.4330 main 2057 2057 _____P________ -1 -27.7277 76.4330 99 15 132
1848011S09080 1848 2 SI MM NOT_NAMED 1848-01-21 12:00:00 NR -28.2265 77.1000 main 2140 2140 _____P________ -1 -28.2265 77.1000 99 15 129
1848011S09080 1848 2 SI MM NOT_NAMED 1848-01-21 15:00:00 NR -28.6997 77.7973 main 2223 2223 _____P________ -1 -28.6997 77.7973 99 16 127
1848011S09080 1848 2 SI MM NOT_NAMED 1848-01-21 18:00:00 NR -29.1507 78.5210 main 2306 2291 _____P________ -1 -29.1507 78.5210 99 16 125
1848011S09080 1848 2 SI MM NOT_NAMED 1848-01-21 21:00:00 NR -29.5829 79.2673 main 2294 2268 _____P________ -1 -29.5829 79.2673 99 16 123
1848011S09080 1848 2 SI MM NOT_NAMED 1848-01-22 00:00:00 NR -29.9995 80.0320 main 2271 2250 _____P________ -1 -29.9995 80.0320 99 16 122
1848011S09080 1848 2 SI MM NOT_NAMED 1848-01-22 03:00:00 NR -30.4041 80.8109 main 2253 2235 _____P________ -1 -30.4041 80.8109 99 16 121
1848011S09080 1848 2 SI MM NOT_NAMED 1848-01-22 06:00:00 NR -30.8000 81.6000 main 2238 _____O________ -1 -30.8000 81.6000 99 9.90000 16 120

About IBTrACS Database

This database is a web-friendly format of International Best Track Archive for Climate Stewardship (IBTrACS), a global best track data archive curated by NOAA dating back to 1842.

Updated: 2021-10-08